Time;durP1;ratioP1;P1;durP2;ratioP2;P2;SDS_P1;SDS_P2;PMS_P1;PMS_P2;Temp;Humidity;BMP_temperature;BMP_pressure;BME280_temperature;BME280_humidity;BME280_pressure;Samples;Min_cycle;Max_cycle;Signal;HPM_P1;HPM_P2
2024/04/07 00:02:26;;;;;;;2.17;1.73;;;;;;;;;;10375520;28;20033;-78
2024/04/07 00:07:28;;;;;;;1.52;1.13;;;;;;;;;;10374323;28;20045;-79
2024/04/07 00:12:31;;;;;;;1.52;1.27;;;;;;;;;;10372302;28;20052;-78
2024/04/07 00:17:34;;;;;;;2.50;1.63;;;;;;;;;;10370925;28;20112;-77
2024/04/07 00:22:35;;;;;;;1.38;0.70;;;;;;;;;;10361563;28;20391;-76
2024/04/07 00:27:39;;;;;;;2.70;1.20;;;;;;;;;;10370669;28;20135;-77
2024/04/07 00:32:40;;;;;;;6.25;1.52;;;;;;;;;;10369901;28;20057;-76
2024/04/07 00:37:42;;;;;;;3.05;1.30;;;;;;;;;;10367192;28;20833;-76
2024/04/07 00:42:48;;;;;;;1.92;1.17;;;;;;;;;;10351067;28;20430;-77
2024/04/07 00:47:49;;;;;;;2.05;1.20;;;;;;;;;;10353370;28;20136;-77
2024/04/07 00:52:52;;;;;;;2.45;0.95;;;;;;;;;;10370547;28;20056;-77
2024/04/07 00:57:55;;;;;;;2.22;1.08;;;;;;;;;;10371495;28;20053;-77
2024/04/07 01:02:57;;;;;;;4.72;1.70;;;;;;;;;;10369090;28;20068;-77
2024/04/07 01:07:59;;;;;;;1.95;1.40;;;;;;;;;;10372700;28;20564;-76
2024/04/07 01:13:02;;;;;;;5.07;1.88;;;;;;;;;;10367565;28;20057;-77
2024/04/07 01:18:04;;;;;;;3.38;1.60;;;;;;;;;;10370912;28;20049;-77
2024/04/07 01:23:06;;;;;;;3.83;1.98;;;;;;;;;;10370776;28;20049;-77
2024/04/07 01:28:09;;;;;;;3.47;2.25;;;;;;;;;;10371863;28;20056;-77
2024/04/07 01:33:11;;;;;;;3.40;2.17;;;;;;;;;;10370553;28;20496;-76
2024/04/07 01:38:13;;;;;;;4.85;2.00;;;;;;;;;;10363175;28;20044;-77
2024/04/07 01:43:16;;;;;;;5.25;2.20;;;;;;;;;;10372119;28;20053;-77
2024/04/07 01:48:18;;;;;;;4.67;2.30;;;;;;;;;;10370342;28;20038;-77
2024/04/07 01:53:19;;;;;;;4.45;2.03;;;;;;;;;;10372278;28;20041;-77
2024/04/07 01:58:23;;;;;;;2.65;1.60;;;;;;;;;;10374166;28;20387;-77
2024/04/07 02:03:24;;;;;;;1.87;1.73;;;;;;;;;;10359761;28;20056;-77
2024/04/07 02:08:26;;;;;;;2.70;1.48;;;;;;;;;;10369537;28;20045;-77
2024/04/07 02:13:32;;;;;;;1.40;1.17;;;;;;;;;;10363973;28;20041;-75
2024/04/07 02:18:34;;;;;;;2.97;1.60;;;;;;;;;;10369756;28;20435;-77
2024/04/07 02:23:35;;;;;;;1.25;1.05;;;;;;;;;;10368162;28;20057;-77
2024/04/07 02:28:39;;;;;;;1.20;0.63;;;;;;;;;;10368592;28;20438;-76
2024/04/07 02:33:40;;;;;;;1.47;1.10;;;;;;;;;;10374229;28;20420;-77
2024/04/07 02:38:42;;;;;;;1.75;1.00;;;;;;;;;;10369193;28;20099;-76
2024/04/07 02:43:45;;;;;;;1.50;1.02;;;;;;;;;;10367963;28;20050;-75
2024/04/07 02:48:46;;;;;;;2.83;1.45;;;;;;;;;;10374519;28;20045;-76
2024/04/07 02:53:48;;;;;;;4.43;1.40;;;;;;;;;;10379286;28;20354;-76
2024/04/07 02:58:51;;;;;;;1.90;1.23;;;;;;;;;;10360976;28;20085;-76
2024/04/07 03:03:54;;;;;;;1.45;1.20;;;;;;;;;;10359383;28;20041;-77
2024/04/07 03:08:57;;;;;;;2.35;1.17;;;;;;;;;;10375920;28;20037;-76
2024/04/07 03:14:01;;;;;;;0.80;0.80;;;;;;;;;;10368857;28;20065;-76
2024/04/07 03:19:03;;;;;;;2.25;1.00;;;;;;;;;;10358949;28;20433;-76
2024/04/07 03:24:05;;;;;;;2.00;1.25;;;;;;;;;;10374451;28;20155;-76
2024/04/07 03:29:08;;;;;;;3.25;1.15;;;;;;;;;;10374373;28;20076;-76
2024/04/07 03:34:10;;;;;;;1.50;1.03;;;;;;;;;;10371209;28;20053;-77
2024/04/07 03:39:17;;;;;;;3.10;0.77;;;;;;;;;;10373883;28;20469;-77
2024/04/07 03:44:22;;;;;;;1.08;0.85;;;;;;;;;;10358926;28;20048;-77
2024/04/07 03:49:24;;;;;;;2.67;1.10;;;;;;;;;;10377675;28;20042;-76
2024/04/07 03:54:26;;;;;;;1.73;0.80;;;;;;;;;;10373525;28;20117;-76
2024/04/07 03:59:29;;;;;;;1.02;0.60;;;;;;;;;;10375413;28;20030;-77
2024/04/07 04:04:32;;;;;;;1.73;0.90;;;;;;;;;;10372945;28;20041;-76
2024/04/07 04:09:33;;;;;;;0.60;0.60;;;;;;;;;;10358360;28;20038;-76
2024/04/07 04:14:36;;;;;;;1.40;0.75;;;;;;;;;;10378806;28;20390;-76
2024/04/07 04:19:39;;;;;;;0.68;0.57;;;;;;;;;;10377814;28;20037;-76
2024/04/07 04:24:41;;;;;;;1.27;0.88;;;;;;;;;;10372302;28;20525;-76
2024/04/07 04:29:44;;;;;;;0.82;0.80;;;;;;;;;;10375160;28;20034;-77
2024/04/07 04:34:46;;;;;;;4.00;0.90;;;;;;;;;;10376246;28;20103;-76
2024/04/07 04:39:48;;;;;;;1.58;1.08;;;;;;;;;;10369512;28;20399;-77
2024/04/07 04:44:52;;;;;;;0.85;0.45;;;;;;;;;;10372453;28;20513;-77
2024/04/07 04:49:54;;;;;;;0.90;0.80;;;;;;;;;;10374947;28;20601;-77
2024/04/07 04:54:57;;;;;;;1.20;1.00;;;;;;;;;;10370948;28;20042;-77
2024/04/07 05:00:00;;;;;;;0.68;0.68;;;;;;;;;;10368564;28;20041;-76
2024/04/07 05:05:01;;;;;;;1.00;0.83;;;;;;;;;;10368469;28;20449;-75
2024/04/07 05:10:04;;;;;;;1.58;0.70;;;;;;;;;;10371054;28;20553;-77
2024/04/07 05:15:07;;;;;;;1.53;0.93;;;;;;;;;;10386135;28;20146;-78
2024/04/07 05:20:09;;;;;;;0.55;0.30;;;;;;;;;;10367727;28;20358;-77
2024/04/07 05:25:11;;;;;;;2.35;0.80;;;;;;;;;;10367780;28;20045;-77
2024/04/07 05:30:14;;;;;;;1.80;0.95;;;;;;;;;;10357085;28;20126;-77
2024/04/07 05:35:16;;;;;;;2.05;0.60;;;;;;;;;;10364023;28;20052;-73
2024/04/07 05:40:17;;;;;;;0.60;0.50;;;;;;;;;;10366282;28;20037;-73
2024/04/07 05:45:21;;;;;;;1.85;1.02;;;;;;;;;;10366853;28;20445;-73
2024/04/07 05:50:22;;;;;;;1.27;0.90;;;;;;;;;;10354207;28;20037;-73
2024/04/07 05:55:24;;;;;;;1.65;0.80;;;;;;;;;;10367117;28;20298;-73
2024/04/07 06:00:27;;;;;;;2.17;1.00;;;;;;;;;;10367789;28;20565;-73
2024/04/07 06:05:29;;;;;;;1.00;0.75;;;;;;;;;;10369892;28;20409;-74
2024/04/07 06:10:31;;;;;;;1.88;0.90;;;;;;;;;;10365488;28;20050;-74
2024/04/07 06:15:34;;;;;;;0.82;0.82;;;;;;;;;;10363067;28;20045;-74
2024/04/07 06:20:36;;;;;;;2.13;1.10;;;;;;;;;;10364235;28;20038;-74
2024/04/07 06:25:38;;;;;;;2.05;1.02;;;;;;;;;;10372965;28;20524;-75
2024/04/07 06:30:41;;;;;;;1.15;0.95;;;;;;;;;;10372744;28;20548;-73
2024/04/07 06:35:43;;;;;;;1.20;1.02;;;;;;;;;;10377609;28;20054;-73
2024/04/07 06:40:45;;;;;;;3.20;1.52;;;;;;;;;;10355022;28;20374;-72
2024/04/07 06:45:55;;;;;;;2.15;1.00;;;;;;;;;;10374702;28;20042;-71
2024/04/07 06:50:59;;;;;;;1.38;1.15;;;;;;;;;;10375193;28;20046;-73
2024/04/07 06:56:01;;;;;;;3.05;1.33;;;;;;;;;;10367025;28;20047;-72
2024/04/07 07:01:04;;;;;;;1.67;1.05;;;;;;;;;;10354550;28;20080;-72
2024/04/07 07:06:06;;;;;;;;;;;;;;;;;;10375039;28;20497;-73
2024/04/07 07:11:08;;;;;;;1.80;1.15;;;;;;;;;;10355774;28;19936;-74
2024/04/07 07:16:11;;;;;;;1.87;1.20;;;;;;;;;;10374985;28;20049;-73
2024/04/07 07:21:13;;;;;;;2.72;1.40;;;;;;;;;;10376726;28;20041;-73
2024/04/07 07:26:15;;;;;;;2.20;1.30;;;;;;;;;;10390761;28;20045;-75
2024/04/07 07:31:19;;;;;;;4.38;1.33;;;;;;;;;;10374378;28;20037;-73
2024/04/07 07:36:21;;;;;;;4.13;1.58;;;;;;;;;;10374004;28;20037;-74
2024/04/07 07:41:24;;;;;;;3.20;1.48;;;;;;;;;;10370514;28;20418;-74
2024/04/07 07:46:28;;;;;;;4.38;1.45;;;;;;;;;;10372101;28;20042;-74
2024/04/07 07:51:30;;;;;;;;;;;;;;;;;;10371911;28;20398;-75
2024/04/07 07:56:31;;;;;;;1.60;1.30;;;;;;;;;;10366027;28;19957;-75
2024/04/07 08:01:34;;;;;;;2.50;1.20;;;;;;;;;;10348446;28;20463;-74
2024/04/07 08:06:37;;;;;;;3.17;1.48;;;;;;;;;;10374285;28;20115;-75
2024/04/07 08:11:39;;;;;;;;;;;;;;;;;;10370465;28;20498;-74
2024/04/07 08:16:42;;;;;;;2.20;1.38;;;;;;;;;;10370684;28;20265;-73
2024/04/07 08:21:44;;;;;;;1.25;1.15;;;;;;;;;;10354717;28;20123;-74
2024/04/07 08:26:45;;;;;;;4.07;1.40;;;;;;;;;;10368531;28;20064;-73
2024/04/07 08:31:50;;;;;;;3.15;1.40;;;;;;;;;;10369452;28;20429;-73
2024/04/07 08:36:51;;;;;;;3.20;1.60;;;;;;;;;;10371532;28;20033;-75
2024/04/07 08:41:54;;;;;;;2.80;1.60;;;;;;;;;;10370407;28;20038;-74
2024/04/07 08:46:58;;;;;;;5.82;1.67;;;;;;;;;;10369984;28;20524;-74
2024/04/07 08:52:00;;;;;;;3.55;1.52;;;;;;;;;;10371554;28;20056;-73
2024/04/07 08:57:07;;;;;;;4.18;1.50;;;;;;;;;;10363809;28;20054;-75
2024/04/07 09:02:12;;;;;;;1.60;1.40;;;;;;;;;;10370133;28;20623;-73
2024/04/07 09:07:13;;;;;;;1.70;1.40;;;;;;;;;;10368862;28;20061;-75
2024/04/07 09:12:15;;;;;;;3.25;1.50;;;;;;;;;;10373040;28;20037;-74
2024/04/07 09:17:19;;;;;;;3.42;1.75;;;;;;;;;;10388190;28;20501;-73
2024/04/07 09:22:22;;;;;;;4.00;1.75;;;;;;;;;;10354230;28;20477;-76
2024/04/07 09:27:26;;;;;;;3.80;1.90;;;;;;;;;;10369473;28;20591;-74
2024/04/07 09:32:29;;;;;;;4.53;1.65;;;;;;;;;;10370640;28;20041;-74
2024/04/07 09:37:31;;;;;;;2.88;1.30;;;;;;;;;;10374223;28;20038;-73
2024/04/07 09:42:36;;;;;;;2.83;1.58;;;;;;;;;;10382886;28;20375;-74
2024/04/07 09:47:44;;;;;;;5.25;2.03;;;;;;;;;;10355776;28;20042;-74
2024/04/07 09:52:50;;;;;;;3.75;1.70;;;;;;;;;;10372982;28;20045;-72
2024/04/07 09:57:51;;;;;;;4.57;2.47;;;;;;;;;;10372611;28;20118;-73
2024/04/07 10:02:55;;;;;;;3.80;2.15;;;;;;;;;;10382104;28;20119;-73
2024/04/07 10:07:57;;;;;;;5.65;2.10;;;;;;;;;;10374402;28;20045;-75
2024/04/07 10:13:07;;;;;;;7.07;1.90;;;;;;;;;;10371271;28;20855;-74
2024/04/07 10:18:16;;;;;;;8.93;2.45;;;;;;;;;;10367036;28;20430;-73
2024/04/07 10:23:18;;;;;;;3.67;1.58;;;;;;;;;;10379488;28;20046;-73
2024/04/07 10:28:19;;;;;;;6.65;2.00;;;;;;;;;;10350848;28;20033;-72
2024/04/07 10:33:23;;;;;;;10.50;2.30;;;;;;;;;;10367226;28;20041;-74
2024/04/07 10:38:24;;;;;;;5.45;2.38;;;;;;;;;;10368032;28;20450;-73
2024/04/07 10:43:26;;;;;;;11.40;2.63;;;;;;;;;;10362115;28;20601;-73
2024/04/07 10:48:30;;;;;;;7.78;2.20;;;;;;;;;;10372721;28;20118;-74
2024/04/07 10:53:32;;;;;;;9.57;2.40;;;;;;;;;;10372478;28;20060;-74
2024/04/07 10:58:34;;;;;;;8.73;2.55;;;;;;;;;;10374127;28;20041;-74
2024/04/07 11:03:37;;;;;;;5.90;2.25;;;;;;;;;;10363479;28;20049;-74
2024/04/07 11:08:40;;;;;;;5.10;2.10;;;;;;;;;;10376380;28;20140;-74
2024/04/07 11:13:42;;;;;;;10.45;2.40;;;;;;;;;;10374978;28;20053;-75
2024/04/07 11:18:47;;;;;;;7.93;1.95;;;;;;;;;;10379567;28;20072;-75
2024/04/07 11:23:49;;;;;;;7.43;2.10;;;;;;;;;;10379659;28;20064;-74
2024/04/07 11:28:50;;;;;;;8.93;2.10;;;;;;;;;;10377442;28;20501;-73
2024/04/07 11:33:55;;;;;;;11.20;2.75;;;;;;;;;;10375493;28;20049;-74
2024/04/07 11:38:57;;;;;;;14.43;2.72;;;;;;;;;;10370132;28;20518;-73
2024/04/07 11:43:58;;;;;;;7.85;2.45;;;;;;;;;;10372874;28;20049;-73
2024/04/07 11:49:01;;;;;;;17.65;2.63;;;;;;;;;;10360277;28;20037;-72
2024/04/07 11:54:11;;;;;;;11.68;2.50;;;;;;;;;;10375121;28;20863;-72
2024/04/07 11:59:13;;;;;;;;;;;;;;;;;;10375699;28;20056;-73
2024/04/07 12:04:17;;;;;;;8.35;2.63;;;;;;;;;;10369058;28;19982;-72
2024/04/07 12:09:18;;;;;;;7.47;1.83;;;;;;;;;;10369883;28;20033;-74
2024/04/07 12:14:20;;;;;;;9.13;2.00;;;;;;;;;;10377769;28;20041;-73
2024/04/07 12:19:23;;;;;;;9.63;2.10;;;;;;;;;;10375538;28;20474;-73
2024/04/07 12:24:25;;;;;;;13.05;2.22;;;;;;;;;;10355662;28;20465;-74
2024/04/07 12:29:27;;;;;;;14.20;2.67;;;;;;;;;;10369144;28;20037;-75
2024/04/07 12:34:30;;;;;;;9.95;1.80;;;;;;;;;;10367576;28;20037;-74
2024/04/07 12:39:32;;;;;;;14.85;2.10;;;;;;;;;;10370558;28;20119;-74
2024/04/07 12:44:34;;;;;;;10.60;2.58;;;;;;;;;;10370527;28;20048;-74
2024/04/07 12:49:39;;;;;;;11.65;2.30;;;;;;;;;;10383692;28;20049;-74
2024/04/07 12:54:40;;;;;;;9.80;1.85;;;;;;;;;;10386568;28;20053;-73
2024/04/07 12:59:42;;;;;;;9.63;1.80;;;;;;;;;;10364500;28;21549;-72
2024/04/07 13:04:47;;;;;;;10.10;2.22;;;;;;;;;;10363705;28;20084;-74
2024/04/07 13:09:49;;;;;;;12.80;2.15;;;;;;;;;;10368171;28;20076;-73
2024/04/07 13:14:50;;;;;;;7.88;1.92;;;;;;;;;;10364407;28;20046;-74
2024/04/07 13:19:54;;;;;;;8.82;1.80;;;;;;;;;;10365563;28;20542;-76
2024/04/07 13:24:57;;;;;;;6.03;1.95;;;;;;;;;;10383526;28;20056;-77
2024/04/07 13:29:59;;;;;;;12.55;1.83;;;;;;;;;;10361650;28;20057;-75
2024/04/07 13:35:02;;;;;;;4.93;1.55;;;;;;;;;;10384288;28;20056;-76
2024/04/07 13:40:06;;;;;;;9.55;1.80;;;;;;;;;;10380210;28;20048;-76
2024/04/07 13:45:10;;;;;;;15.75;2.08;;;;;;;;;;10363564;28;20049;-76
2024/04/07 13:50:13;;;;;;;8.25;1.50;;;;;;;;;;10363892;28;20042;-77
2024/04/07 13:55:15;;;;;;;10.98;2.08;;;;;;;;;;10365296;28;20362;-76
2024/04/07 14:00:17;;;;;;;9.60;1.67;;;;;;;;;;10364247;28;20609;-76
2024/04/07 14:05:19;;;;;;;;;;;;;;;;;;10367986;28;20050;-75
2024/04/07 14:10:22;;;;;;;9.63;2.13;;;;;;;;;;10361495;28;19928;-76
2024/04/07 14:15:24;;;;;;;7.20;1.83;;;;;;;;;;10360929;28;20054;-77
2024/04/07 14:20:26;;;;;;;10.48;2.00;;;;;;;;;;10362045;28;20041;-76
2024/04/07 14:25:29;;;;;;;10.02;2.38;;;;;;;;;;10355381;28;20057;-76
2024/04/07 14:30:31;;;;;;;10.73;2.38;;;;;;;;;;10346773;28;20426;-76
2024/04/07 14:35:32;;;;;;;13.80;3.45;;;;;;;;;;10360721;28;20135;-77
2024/04/07 14:40:36;;;;;;;5.90;1.85;;;;;;;;;;10363885;28;20050;-74
2024/04/07 14:45:37;;;;;;;12.95;1.83;;;;;;;;;;10344423;28;20053;-76
2024/04/07 14:50:40;;;;;;;11.65;2.83;;;;;;;;;;10374447;28;20115;-76
2024/04/07 14:55:44;;;;;;;13.85;1.80;;;;;;;;;;10367093;28;20493;-76
2024/04/07 15:00:46;;;;;;;7.20;1.95;;;;;;;;;;10367422;28;20041;-76
2024/04/07 15:05:48;;;;;;;18.55;1.70;;;;;;;;;;10370178;28;20041;-76
2024/04/07 15:10:59;;;;;;;9.65;1.73;;;;;;;;;;10372257;28;20068;-77
2024/04/07 15:16:03;;;;;;;14.05;2.60;;;;;;;;;;10331681;28;21502;-76
2024/04/07 15:21:05;;;;;;;10.23;2.65;;;;;;;;;;10372665;28;20033;-76
2024/04/07 15:26:09;;;;;;;11.40;2.05;;;;;;;;;;10369783;28;20175;-75
2024/04/07 15:31:11;;;;;;;11.30;2.00;;;;;;;;;;10360945;28;20103;-76
2024/04/07 15:36:14;;;;;;;17.50;2.47;;;;;;;;;;10354461;28;20184;-77
2024/04/07 15:41:18;;;;;;;9.95;1.80;;;;;;;;;;10367920;28;20041;-76
2024/04/07 15:46:20;;;;;;;16.67;5.00;;;;;;;;;;10368718;28;20054;-76
2024/04/07 15:51:21;;;;;;;7.88;2.25;;;;;;;;;;10357632;28;20124;-76
2024/04/07 15:56:25;;;;;;;14.38;2.05;;;;;;;;;;10383924;28;20045;-76
2024/04/07 16:01:28;;;;;;;17.27;1.75;;;;;;;;;;10367053;28;20048;-75
2024/04/07 16:06:29;;;;;;;8.95;1.70;;;;;;;;;;10372592;28;20068;-76
2024/04/07 16:11:33;;;;;;;11.43;1.83;;;;;;;;;;10364357;28;20124;-76
2024/04/07 16:16:35;;;;;;;7.95;1.80;;;;;;;;;;10365723;28;20048;-77
2024/04/07 16:21:36;;;;;;;12.53;1.97;;;;;;;;;;10383496;28;20037;-76
2024/04/07 16:26:39;;;;;;;10.45;1.88;;;;;;;;;;10366043;28;20057;-76
2024/04/07 16:31:41;;;;;;;10.18;1.70;;;;;;;;;;10355833;28;20048;-77
2024/04/07 16:36:44;;;;;;;12.25;2.53;;;;;;;;;;10366963;28;20624;-75
2024/04/07 16:41:48;;;;;;;11.15;2.15;;;;;;;;;;10365628;28;20111;-76
2024/04/07 16:46:49;;;;;;;11.85;2.20;;;;;;;;;;10368526;28;20050;-76
2024/04/07 16:51:51;;;;;;;8.30;2.05;;;;;;;;;;10364107;28;20045;-77
2024/04/07 16:56:54;;;;;;;10.68;2.72;;;;;;;;;;10362501;28;20042;-77
2024/04/07 17:01:56;;;;;;;9.23;1.75;;;;;;;;;;10370400;28;20048;-77
2024/04/07 17:06:58;;;;;;;7.43;1.80;;;;;;;;;;10366737;28;20147;-76
2024/04/07 17:12:02;;;;;;;7.63;1.70;;;;;;;;;;10348512;28;20042;-77
2024/04/07 17:17:04;;;;;;;15.10;2.10;;;;;;;;;;10365570;28;20649;-77
2024/04/07 17:22:06;;;;;;;10.32;2.50;;;;;;;;;;10366982;28;20486;-76
2024/04/07 17:27:10;;;;;;;12.47;2.20;;;;;;;;;;10365604;28;20037;-76
2024/04/07 17:32:12;;;;;;;15.45;2.70;;;;;;;;;;10367398;28;20129;-76
2024/04/07 17:37:13;;;;;;;11.20;2.33;;;;;;;;;;10364357;28;20506;-76
2024/04/07 17:42:16;;;;;;;15.18;2.70;;;;;;;;;;10364110;28;20048;-75
2024/04/07 17:47:18;;;;;;;;;;;;;;;;;;10372532;28;20118;-75
2024/04/07 17:52:20;;;;;;;13.02;3.00;;;;;;;;;;10361154;28;20271;-76
2024/04/07 17:57:25;;;;;;;12.33;2.43;;;;;;;;;;10356719;28;20045;-75
2024/04/07 18:02:28;;;;;;;14.48;2.30;;;;;;;;;;10362418;28;20462;-76
2024/04/07 18:07:30;;;;;;;12.43;2.58;;;;;;;;;;10359427;28;20041;-75
2024/04/07 18:12:34;;;;;;;11.82;2.63;;;;;;;;;;10342601;28;20100;-76
2024/04/07 18:17:36;;;;;;;14.73;2.30;;;;;;;;;;10358582;28;20735;-76
2024/04/07 18:22:41;;;;;;;9.45;2.53;;;;;;;;;;10357570;28;20099;-76
2024/04/07 18:27:44;;;;;;;9.32;2.45;;;;;;;;;;10365713;28;20375;-77
2024/04/07 18:32:46;;;;;;;;;;;;;;;;;;10366596;28;20107;-76
2024/04/07 18:37:49;;;;;;;5.40;2.00;;;;;;;;;;10361498;28;19932;-75
2024/04/07 18:42:52;;;;;;;11.45;2.75;;;;;;;;;;10358174;28;20084;-77
2024/04/07 18:47:54;;;;;;;12.50;2.40;;;;;;;;;;10364159;28;20132;-76
2024/04/07 18:52:56;;;;;;;13.70;4.07;;;;;;;;;;10364734;28;20399;-76
2024/04/07 18:58:00;;;;;;;5.82;2.42;;;;;;;;;;10359510;28;20131;-76
2024/04/07 19:03:01;;;;;;;;;;;;;;;;;;10343667;28;20041;-75
2024/04/07 19:08:03;;;;;;;9.82;3.28;;;;;;;;;;10360069;28;19975;-76
2024/04/07 19:13:07;;;;;;;14.40;2.70;;;;;;;;;;10362516;28;20737;-76
2024/04/07 19:18:11;;;;;;;10.95;2.63;;;;;;;;;;10360990;28;20056;-76
2024/04/07 19:23:13;;;;;;;8.65;1.70;;;;;;;;;;10360632;28;21984;-77
2024/04/07 19:28:16;;;;;;;10.10;2.38;;;;;;;;;;10353502;28;20056;-77
2024/04/07 19:33:18;;;;;;;10.20;2.60;;;;;;;;;;10364277;28;20533;-75
2024/04/07 19:38:20;;;;;;;4.30;1.65;;;;;;;;;;10367517;28;20358;-76
2024/04/07 19:43:24;;;;;;;10.60;2.25;;;;;;;;;;10383021;28;20423;-80
2024/04/07 19:48:27;;;;;;;7.78;2.60;;;;;;;;;;10371779;28;20486;-76
2024/04/07 19:53:30;;;;;;;5.40;1.70;;;;;;;;;;10366932;28;20033;-79
2024/04/07 19:58:32;;;;;;;;;;;;;;;;;;10366977;28;20060;-77
2024/04/07 20:03:35;;;;;;;6.03;2.08;;;;;;;;;;10367387;28;19924;-78
2024/04/07 20:08:39;;;;;;;9.13;2.28;;;;;;;;;;10366622;28;20064;-81
2024/04/07 20:13:40;;;;;;;;;;;;;;;;;;10353200;28;20087;-78
2024/04/07 20:18:44;;;;;;;12.98;2.25;;;;;;;;;;10369761;28;19951;-79
2024/04/07 20:23:46;;;;;;;12.60;2.90;;;;;;;;;;10371651;28;20530;-78
2024/04/07 20:28:49;;;;;;;6.13;1.87;;;;;;;;;;10383615;28;20034;-78
2024/04/07 20:33:55;;;;;;;9.43;1.97;;;;;;;;;;10368749;28;20177;-82
2024/04/07 20:38:57;;;;;;;7.30;2.53;;;;;;;;;;10364641;28;20080;-79
2024/04/07 20:44:00;;;;;;;8.30;2.55;;;;;;;;;;10360188;28;20347;-80
2024/04/07 20:49:03;;;;;;;6.70;1.77;;;;;;;;;;10355327;28;20123;-79
2024/04/07 20:54:13;;;;;;;5.70;1.80;;;;;;;;;;10373126;28;20453;-80
2024/04/07 20:59:16;;;;;;;9.70;2.15;;;;;;;;;;10384173;28;20045;-78
2024/04/07 21:04:20;;;;;;;11.38;2.08;;;;;;;;;;10371918;28;20037;-79
2024/04/07 21:09:22;;;;;;;7.25;2.22;;;;;;;;;;10369155;28;20509;-79
2024/04/07 21:14:24;;;;;;;8.23;2.25;;;;;;;;;;10366456;28;20060;-78
2024/04/07 21:19:28;;;;;;;11.00;1.92;;;;;;;;;;10346847;28;20045;-76
2024/04/07 21:24:31;;;;;;;7.25;2.17;;;;;;;;;;10366550;28;20498;-78
2024/04/07 21:29:33;;;;;;;8.97;2.30;;;;;;;;;;10364728;28;20049;-77
2024/04/07 21:34:36;;;;;;;3.90;1.83;;;;;;;;;;10357505;28;20768;-78
2024/04/07 21:39:37;;;;;;;7.38;2.20;;;;;;;;;;10360248;28;20045;-77
2024/04/07 21:44:40;;;;;;;11.18;2.00;;;;;;;;;;10360196;28;20029;-77
2024/04/07 21:49:43;;;;;;;6.95;2.10;;;;;;;;;;10369889;28;20540;-78
2024/04/07 21:54:45;;;;;;;6.25;2.08;;;;;;;;;;10365457;28;20131;-75
2024/04/07 21:59:47;;;;;;;6.80;1.95;;;;;;;;;;10363450;28;20441;-76
2024/04/07 22:04:52;;;;;;;5.75;1.90;;;;;;;;;;10346881;28;20723;-77
2024/04/07 22:09:54;;;;;;;7.00;2.00;;;;;;;;;;10363250;28;20037;-78
2024/04/07 22:14:55;;;;;;;5.40;1.70;;;;;;;;;;10362194;28;20041;-77
2024/04/07 22:19:59;;;;;;;4.40;1.70;;;;;;;;;;10364807;28;20623;-78
2024/04/07 22:25:01;;;;;;;6.68;2.15;;;;;;;;;;10361439;28;20510;-78
2024/04/07 22:30:03;;;;;;;4.65;1.58;;;;;;;;;;10367514;28;20045;-79
2024/04/07 22:35:07;;;;;;;4.07;1.67;;;;;;;;;;10365140;28;20470;-79
2024/04/07 22:40:10;;;;;;;4.88;2.70;;;;;;;;;;10365677;28;20042;-79
2024/04/07 22:45:12;;;;;;;3.13;1.17;;;;;;;;;;10357364;28;20433;-78
2024/04/07 22:50:15;;;;;;;5.15;1.75;;;;;;;;;;10366403;28;20474;-79
2024/04/07 22:55:17;;;;;;;3.22;1.60;;;;;;;;;;10382827;28;20095;-78
2024/04/07 23:00:20;;;;;;;5.85;1.70;;;;;;;;;;10368198;28;20056;-79
2024/04/07 23:05:23;;;;;;;3.72;1.25;;;;;;;;;;10374477;28;20137;-78
2024/04/07 23:10:24;;;;;;;3.55;0.95;;;;;;;;;;10373049;28;21949;-77
2024/04/07 23:15:26;;;;;;;3.13;1.08;;;;;;;;;;10376843;28;20351;-78
2024/04/07 23:20:29;;;;;;;5.55;1.77;;;;;;;;;;10370795;28;20054;-78
2024/04/07 23:25:31;;;;;;;2.10;1.17;;;;;;;;;;10368657;28;20510;-78
2024/04/07 23:30:33;;;;;;;11.27;1.73;;;;;;;;;;10353545;28;20527;-79
2024/04/07 23:35:36;;;;;;;4.82;1.58;;;;;;;;;;10358505;28;20045;-78
2024/04/07 23:40:37;;;;;;;5.47;1.08;;;;;;;;;;10373395;28;20152;-78
2024/04/07 23:45:39;;;;;;;1.10;0.80;;;;;;;;;;10363312;28;20041;-78
2024/04/07 23:50:42;;;;;;;3.33;1.13;;;;;;;;;;10373674;28;20633;-78
2024/04/07 23:55:46;;;;;;;8.50;1.75;;;;;;;;;;10370402;28;20045;-78
